sensor_id;sensor_type;location;lat;lon;timestamp;P1;durP1;ratioP1;P2;durP2;ratioP2
17052;SDS011;8643;48.824;11.422;2023-01-04T00:02:08;70.13;;;18.50;;
17052;SDS011;8643;48.824;11.422;2023-01-04T00:04:36;49.77;;;16.17;;
17052;SDS011;8643;48.824;11.422;2023-01-04T00:07:05;35.77;;;16.97;;
17052;SDS011;8643;48.824;11.422;2023-01-04T00:09:34;36.50;;;16.83;;
17052;SDS011;8643;48.824;11.422;2023-01-04T00:12:02;45.77;;;18.00;;
17052;SDS011;8643;48.824;11.422;2023-01-04T00:14:31;39.10;;;18.43;;
17052;SDS011;8643;48.824;11.422;2023-01-04T00:17:01;68.97;;;21.03;;
17052;SDS011;8643;48.824;11.422;2023-01-04T00:19:30;38.57;;;18.10;;
17052;SDS011;8643;48.824;11.422;2023-01-04T00:21:59;61.37;;;21.47;;
17052;SDS011;8643;48.824;11.422;2023-01-04T00:24:27;67.83;;;20.07;;
17052;SDS011;8643;48.824;11.422;2023-01-04T00:26:55;192.17;;;23.97;;
17052;SDS011;8643;48.824;11.422;2023-01-04T00:29:23;149.63;;;23.13;;
17052;SDS011;8643;48.824;11.422;2023-01-04T00:31:52;174.53;;;23.93;;
17052;SDS011;8643;48.824;11.422;2023-01-04T00:34:22;57.83;;;21.03;;
17052;SDS011;8643;48.824;11.422;2023-01-04T00:36:50;84.60;;;21.63;;
17052;SDS011;8643;48.824;11.422;2023-01-04T00:39:19;62.27;;;21.33;;
17052;SDS011;8643;48.824;11.422;2023-01-04T00:41:48;110.23;;;23.77;;
17052;SDS011;8643;48.824;11.422;2023-01-04T00:44:27;106.40;;;22.87;;
17052;SDS011;8643;48.824;11.422;2023-01-04T00:46:56;56.93;;;20.73;;
17052;SDS011;8643;48.824;11.422;2023-01-04T00:49:26;74.33;;;19.93;;
17052;SDS011;8643;48.824;11.422;2023-01-04T00:51:56;90.60;;;20.57;;
17052;SDS011;8643;48.824;11.422;2023-01-04T00:54:24;86.67;;;17.53;;
17052;SDS011;8643;48.824;11.422;2023-01-04T00:56:53;67.83;;;15.47;;
17052;SDS011;8643;48.824;11.422;2023-01-04T00:59:22;28.63;;;14.20;;
17052;SDS011;8643;48.824;11.422;2023-01-04T01:01:50;59.93;;;15.10;;
17052;SDS011;8643;48.824;11.422;2023-01-04T01:04:20;30.67;;;13.97;;
17052;SDS011;8643;48.824;11.422;2023-01-04T01:06:52;231.70;;;20.20;;
17052;SDS011;8643;48.824;11.422;2023-01-04T01:09:20;144.07;;;18.10;;
17052;SDS011;8643;48.824;11.422;2023-01-04T01:11:49;54.53;;;15.33;;
17052;SDS011;8643;48.824;11.422;2023-01-04T01:14:19;89.03;;;18.63;;
17052;SDS011;8643;48.824;11.422;2023-01-04T01:16:51;105.63;;;19.37;;
17052;SDS011;8643;48.824;11.422;2023-01-04T01:19:25;67.07;;;17.90;;
17052;SDS011;8643;48.824;11.422;2023-01-04T01:21:56;35.00;;;14.83;;
17052;SDS011;8643;48.824;11.422;2023-01-04T01:24:25;35.33;;;15.60;;
17052;SDS011;8643;48.824;11.422;2023-01-04T01:26:54;95.97;;;18.30;;
17052;SDS011;8643;48.824;11.422;2023-01-04T01:29:23;73.67;;;16.60;;
17052;SDS011;8643;48.824;11.422;2023-01-04T01:31:52;66.97;;;15.83;;
17052;SDS011;8643;48.824;11.422;2023-01-04T01:34:20;60.57;;;16.47;;
17052;SDS011;8643;48.824;11.422;2023-01-04T01:36:49;47.93;;;18.33;;
17052;SDS011;8643;48.824;11.422;2023-01-04T01:39:19;37.73;;;16.77;;
17052;SDS011;8643;48.824;11.422;2023-01-04T01:41:47;39.73;;;16.93;;
17052;SDS011;8643;48.824;11.422;2023-01-04T01:47:25;49.57;;;18.47;;
17052;SDS011;8643;48.824;11.422;2023-01-04T01:50:00;55.53;;;18.23;;
17052;SDS011;8643;48.824;11.422;2023-01-04T01:52:33;41.43;;;17.60;;
17052;SDS011;8643;48.824;11.422;2023-01-04T01:55:08;63.43;;;18.97;;
17052;SDS011;8643;48.824;11.422;2023-01-04T01:57:39;45.00;;;17.77;;
17052;SDS011;8643;48.824;11.422;2023-01-04T02:00:09;45.20;;;18.70;;
17052;SDS011;8643;48.824;11.422;2023-01-04T02:02:44;46.67;;;18.67;;
17052;SDS011;8643;48.824;11.422;2023-01-04T02:05:22;40.70;;;17.97;;
17052;SDS011;8643;48.824;11.422;2023-01-04T02:07:53;59.97;;;19.10;;
17052;SDS011;8643;48.824;11.422;2023-01-04T02:10:23;118.80;;;20.97;;
17052;SDS011;8643;48.824;11.422;2023-01-04T02:12:52;61.03;;;19.60;;
17052;SDS011;8643;48.824;11.422;2023-01-04T02:15:21;55.30;;;18.90;;
17052;SDS011;8643;48.824;11.422;2023-01-04T02:17:56;49.00;;;19.43;;
17052;SDS011;8643;48.824;11.422;2023-01-04T02:20:36;48.33;;;19.33;;
17052;SDS011;8643;48.824;11.422;2023-01-04T02:23:21;49.97;;;20.80;;
17052;SDS011;8643;48.824;11.422;2023-01-04T02:33:00;55.00;;;19.33;;
17052;SDS011;8643;48.824;11.422;2023-01-04T02:35:50;38.63;;;16.83;;
17052;SDS011;8643;48.824;11.422;2023-01-04T02:38:33;47.37;;;19.30;;
17052;SDS011;8643;48.824;11.422;2023-01-04T02:41:14;40.67;;;17.93;;
17052;SDS011;8643;48.824;11.422;2023-01-04T02:43:55;35.63;;;17.50;;
17052;SDS011;8643;48.824;11.422;2023-01-04T02:46:52;38.50;;;17.83;;
17052;SDS011;8643;48.824;11.422;2023-01-04T02:49:30;56.33;;;19.37;;
17052;SDS011;8643;48.824;11.422;2023-01-04T02:52:16;55.70;;;16.17;;
17052;SDS011;8643;48.824;11.422;2023-01-04T02:54:46;49.77;;;17.13;;
17052;SDS011;8643;48.824;11.422;2023-01-04T02:57:23;39.03;;;16.27;;
17052;SDS011;8643;48.824;11.422;2023-01-04T03:00:08;37.33;;;15.77;;
17052;SDS011;8643;48.824;11.422;2023-01-04T03:02:56;45.83;;;15.67;;
17052;SDS011;8643;48.824;11.422;2023-01-04T03:06:06;43.07;;;15.33;;
17052;SDS011;8643;48.824;11.422;2023-01-04T03:08:46;46.60;;;16.67;;
17052;SDS011;8643;48.824;11.422;2023-01-04T03:11:20;43.93;;;16.03;;
17052;SDS011;8643;48.824;11.422;2023-01-04T03:14:16;33.33;;;15.00;;
17052;SDS011;8643;48.824;11.422;2023-01-04T03:16:58;33.30;;;15.23;;
17052;SDS011;8643;48.824;11.422;2023-01-04T03:19:31;32.70;;;14.50;;
17052;SDS011;8643;48.824;11.422;2023-01-04T03:22:23;36.50;;;14.60;;
17052;SDS011;8643;48.824;11.422;2023-01-04T03:25:18;41.00;;;14.80;;
17052;SDS011;8643;48.824;11.422;2023-01-04T03:28:12;31.53;;;14.63;;
17052;SDS011;8643;48.824;11.422;2023-01-04T03:31:03;36.30;;;15.70;;
17052;SDS011;8643;48.824;11.422;2023-01-04T03:34:05;33.53;;;15.17;;
17052;SDS011;8643;48.824;11.422;2023-01-04T03:36:54;36.67;;;15.53;;
17052;SDS011;8643;48.824;11.422;2023-01-04T03:39:38;33.47;;;16.03;;
17052;SDS011;8643;48.824;11.422;2023-01-04T03:42:40;39.77;;;15.00;;
17052;SDS011;8643;48.824;11.422;2023-01-04T03:45:33;32.03;;;14.63;;
17052;SDS011;8643;48.824;11.422;2023-01-04T03:48:28;40.60;;;16.40;;
17052;SDS011;8643;48.824;11.422;2023-01-04T03:51:07;36.53;;;15.13;;
17052;SDS011;8643;48.824;11.422;2023-01-04T03:53:47;31.77;;;15.63;;
17052;SDS011;8643;48.824;11.422;2023-01-04T03:56:22;34.07;;;16.20;;
17052;SDS011;8643;48.824;11.422;2023-01-04T03:58:53;39.53;;;16.07;;
17052;SDS011;8643;48.824;11.422;2023-01-04T04:01:22;35.00;;;15.47;;
17052;SDS011;8643;48.824;11.422;2023-01-04T04:03:53;37.07;;;16.40;;
17052;SDS011;8643;48.824;11.422;2023-01-04T04:06:39;40.00;;;16.40;;
17052;SDS011;8643;48.824;11.422;2023-01-04T04:09:25;39.90;;;17.00;;
17052;SDS011;8643;48.824;11.422;2023-01-04T04:11:56;33.67;;;16.03;;
17052;SDS011;8643;48.824;11.422;2023-01-04T04:14:24;41.53;;;16.50;;
17052;SDS011;8643;48.824;11.422;2023-01-04T04:16:53;39.57;;;16.70;;
17052;SDS011;8643;48.824;11.422;2023-01-04T04:19:22;39.87;;;16.27;;
17052;SDS011;8643;48.824;11.422;2023-01-04T04:21:50;42.50;;;16.63;;
17052;SDS011;8643;48.824;11.422;2023-01-04T04:24:22;39.07;;;16.37;;
17052;SDS011;8643;48.824;11.422;2023-01-04T04:26:51;41.93;;;17.00;;
17052;SDS011;8643;48.824;11.422;2023-01-04T04:29:23;37.27;;;15.50;;
17052;SDS011;8643;48.824;11.422;2023-01-04T04:31:51;41.43;;;16.50;;
17052;SDS011;8643;48.824;11.422;2023-01-04T04:34:20;37.83;;;16.83;;
17052;SDS011;8643;48.824;11.422;2023-01-04T04:36:49;35.17;;;16.33;;
17052;SDS011;8643;48.824;11.422;2023-01-04T04:39:17;37.67;;;16.87;;
17052;SDS011;8643;48.824;11.422;2023-01-04T04:41:46;42.50;;;17.37;;
17052;SDS011;8643;48.824;11.422;2023-01-04T04:44:14;36.37;;;16.57;;
17052;SDS011;8643;48.824;11.422;2023-01-04T04:46:46;39.97;;;15.70;;
17052;SDS011;8643;48.824;11.422;2023-01-04T04:49:16;40.73;;;16.87;;
17052;SDS011;8643;48.824;11.422;2023-01-04T04:51:45;40.13;;;16.80;;
17052;SDS011;8643;48.824;11.422;2023-01-04T04:54:14;41.50;;;16.40;;
17052;SDS011;8643;48.824;11.422;2023-01-04T04:56:45;37.20;;;16.57;;
17052;SDS011;8643;48.824;11.422;2023-01-04T04:59:14;32.60;;;14.53;;
17052;SDS011;8643;48.824;11.422;2023-01-04T05:01:43;32.57;;;15.13;;
17052;SDS011;8643;48.824;11.422;2023-01-04T05:04:13;32.93;;;15.60;;
17052;SDS011;8643;48.824;11.422;2023-01-04T05:06:45;33.53;;;14.90;;
17052;SDS011;8643;48.824;11.422;2023-01-04T05:09:15;33.47;;;15.37;;
17052;SDS011;8643;48.824;11.422;2023-01-04T05:11:44;31.90;;;15.03;;
17052;SDS011;8643;48.824;11.422;2023-01-04T05:14:30;32.17;;;15.00;;
17052;SDS011;8643;48.824;11.422;2023-01-04T05:17:00;38.33;;;15.53;;
17052;SDS011;8643;48.824;11.422;2023-01-04T05:19:29;30.27;;;14.40;;
17052;SDS011;8643;48.824;11.422;2023-01-04T05:21:57;31.30;;;13.70;;
17052;SDS011;8643;48.824;11.422;2023-01-04T05:24:25;29.23;;;13.00;;
17052;SDS011;8643;48.824;11.422;2023-01-04T05:26:54;30.30;;;13.17;;
17052;SDS011;8643;48.824;11.422;2023-01-04T05:29:22;30.33;;;13.57;;
17052;SDS011;8643;48.824;11.422;2023-01-04T05:32:10;27.60;;;13.00;;
17052;SDS011;8643;48.824;11.422;2023-01-04T05:34:38;27.43;;;13.03;;
17052;SDS011;8643;48.824;11.422;2023-01-04T05:37:07;28.33;;;13.03;;
17052;SDS011;8643;48.824;11.422;2023-01-04T05:39:35;27.63;;;12.27;;
17052;SDS011;8643;48.824;11.422;2023-01-04T05:42:04;25.67;;;12.23;;
17052;SDS011;8643;48.824;11.422;2023-01-04T05:44:50;27.40;;;12.63;;
17052;SDS011;8643;48.824;11.422;2023-01-04T05:47:20;24.30;;;12.40;;
17052;SDS011;8643;48.824;11.422;2023-01-04T05:49:49;24.47;;;12.33;;
17052;SDS011;8643;48.824;11.422;2023-01-04T05:52:18;27.57;;;11.70;;
17052;SDS011;8643;48.824;11.422;2023-01-04T05:54:47;23.53;;;12.27;;
17052;SDS011;8643;48.824;11.422;2023-01-04T05:57:15;25.57;;;12.47;;
17052;SDS011;8643;48.824;11.422;2023-01-04T05:59:44;24.57;;;12.33;;
17052;SDS011;8643;48.824;11.422;2023-01-04T06:02:13;23.77;;;12.10;;
17052;SDS011;8643;48.824;11.422;2023-01-04T06:04:45;24.80;;;12.00;;
17052;SDS011;8643;48.824;11.422;2023-01-04T06:07:25;27.97;;;12.97;;
17052;SDS011;8643;48.824;11.422;2023-01-04T06:09:54;24.17;;;11.80;;
17052;SDS011;8643;48.824;11.422;2023-01-04T06:12:22;24.83;;;12.17;;
17052;SDS011;8643;48.824;11.422;2023-01-04T06:14:51;30.30;;;13.17;;
17052;SDS011;8643;48.824;11.422;2023-01-04T06:17:20;31.37;;;13.53;;
17052;SDS011;8643;48.824;11.422;2023-01-04T06:19:50;27.97;;;13.27;;
17052;SDS011;8643;48.824;11.422;2023-01-04T06:22:18;28.47;;;13.73;;
17052;SDS011;8643;48.824;11.422;2023-01-04T06:24:47;30.37;;;13.40;;
17052;SDS011;8643;48.824;11.422;2023-01-04T06:27:16;31.00;;;14.00;;
17052;SDS011;8643;48.824;11.422;2023-01-04T06:29:45;30.27;;;13.33;;
17052;SDS011;8643;48.824;11.422;2023-01-04T06:32:13;33.33;;;13.80;;
17052;SDS011;8643;48.824;11.422;2023-01-04T06:34:42;33.90;;;14.27;;
17052;SDS011;8643;48.824;11.422;2023-01-04T06:37:12;30.20;;;13.73;;
17052;SDS011;8643;48.824;11.422;2023-01-04T06:39:40;32.03;;;14.20;;
17052;SDS011;8643;48.824;11.422;2023-01-04T06:42:09;29.13;;;12.87;;
17052;SDS011;8643;48.824;11.422;2023-01-04T06:44:57;28.43;;;12.50;;
17052;SDS011;8643;48.824;11.422;2023-01-04T06:47:26;32.13;;;13.37;;
17052;SDS011;8643;48.824;11.422;2023-01-04T06:49:54;33.63;;;13.73;;
17052;SDS011;8643;48.824;11.422;2023-01-04T06:52:25;30.80;;;14.03;;
17052;SDS011;8643;48.824;11.422;2023-01-04T06:54:53;30.67;;;13.23;;
17052;SDS011;8643;48.824;11.422;2023-01-04T06:57:21;27.03;;;12.23;;
17052;SDS011;8643;48.824;11.422;2023-01-04T06:59:50;28.57;;;12.27;;
17052;SDS011;8643;48.824;11.422;2023-01-04T07:02:19;25.60;;;12.13;;
17052;SDS011;8643;48.824;11.422;2023-01-04T07:04:47;27.90;;;11.97;;
17052;SDS011;8643;48.824;11.422;2023-01-04T07:07:16;23.50;;;11.53;;
17052;SDS011;8643;48.824;11.422;2023-01-04T07:09:46;25.63;;;12.07;;
17052;SDS011;8643;48.824;11.422;2023-01-04T07:12:14;22.37;;;10.70;;
17052;SDS011;8643;48.824;11.422;2023-01-04T07:14:43;26.97;;;12.10;;
17052;SDS011;8643;48.824;11.422;2023-01-04T07:17:11;25.40;;;11.97;;
17052;SDS011;8643;48.824;11.422;2023-01-04T07:19:40;26.33;;;12.10;;
17052;SDS011;8643;48.824;11.422;2023-01-04T07:22:08;25.20;;;12.00;;
17052;SDS011;8643;48.824;11.422;2023-01-04T07:24:37;26.30;;;12.23;;
17052;SDS011;8643;48.824;11.422;2023-01-04T07:27:08;27.27;;;11.83;;
17052;SDS011;8643;48.824;11.422;2023-01-04T07:29:36;26.37;;;12.90;;
17052;SDS011;8643;48.824;11.422;2023-01-04T07:32:09;23.83;;;11.30;;
17052;SDS011;8643;48.824;11.422;2023-01-04T07:34:39;25.43;;;11.97;;
17052;SDS011;8643;48.824;11.422;2023-01-04T07:37:08;22.57;;;11.03;;
17052;SDS011;8643;48.824;11.422;2023-01-04T07:39:38;21.80;;;10.97;;
17052;SDS011;8643;48.824;11.422;2023-01-04T07:42:08;25.73;;;11.63;;
17052;SDS011;8643;48.824;11.422;2023-01-04T07:44:36;22.83;;;11.17;;
17052;SDS011;8643;48.824;11.422;2023-01-04T07:47:05;25.20;;;11.93;;
17052;SDS011;8643;48.824;11.422;2023-01-04T07:49:34;27.57;;;12.50;;
17052;SDS011;8643;48.824;11.422;2023-01-04T07:52:02;27.83;;;13.67;;
17052;SDS011;8643;48.824;11.422;2023-01-04T07:54:31;27.60;;;12.93;;
17052;SDS011;8643;48.824;11.422;2023-01-04T07:57:00;26.60;;;11.97;;
17052;SDS011;8643;48.824;11.422;2023-01-04T07:59:30;27.07;;;11.97;;
17052;SDS011;8643;48.824;11.422;2023-01-04T08:01:58;24.00;;;11.53;;
17052;SDS011;8643;48.824;11.422;2023-01-04T08:04:27;23.03;;;11.67;;
17052;SDS011;8643;48.824;11.422;2023-01-04T08:07:00;22.73;;;11.83;;
17052;SDS011;8643;48.824;11.422;2023-01-04T08:09:29;21.67;;;11.80;;
17052;SDS011;8643;48.824;11.422;2023-01-04T08:11:57;24.63;;;12.03;;
17052;SDS011;8643;48.824;11.422;2023-01-04T08:14:26;29.33;;;13.63;;
17052;SDS011;8643;48.824;11.422;2023-01-04T08:16:55;30.23;;;13.43;;
17052;SDS011;8643;48.824;11.422;2023-01-04T08:19:25;27.30;;;12.90;;
17052;SDS011;8643;48.824;11.422;2023-01-04T08:21:53;29.27;;;13.93;;
17052;SDS011;8643;48.824;11.422;2023-01-04T08:24:22;30.23;;;14.10;;
17052;SDS011;8643;48.824;11.422;2023-01-04T08:26:51;26.87;;;13.13;;
17052;SDS011;8643;48.824;11.422;2023-01-04T08:29:19;30.97;;;15.00;;
17052;SDS011;8643;48.824;11.422;2023-01-04T08:31:47;31.27;;;13.90;;
17052;SDS011;8643;48.824;11.422;2023-01-04T08:34:17;30.30;;;15.07;;
17052;SDS011;8643;48.824;11.422;2023-01-04T08:36:46;28.60;;;14.80;;
17052;SDS011;8643;48.824;11.422;2023-01-04T08:39:18;29.17;;;14.53;;
17052;SDS011;8643;48.824;11.422;2023-01-04T08:41:47;31.33;;;14.23;;
17052;SDS011;8643;48.824;11.422;2023-01-04T08:44:28;26.00;;;13.70;;
17052;SDS011;8643;48.824;11.422;2023-01-04T08:46:56;26.60;;;13.83;;
17052;SDS011;8643;48.824;11.422;2023-01-04T08:49:26;23.27;;;12.47;;
17052;SDS011;8643;48.824;11.422;2023-01-04T08:51:54;21.67;;;11.60;;
17052;SDS011;8643;48.824;11.422;2023-01-04T08:54:23;22.07;;;11.77;;
17052;SDS011;8643;48.824;11.422;2023-01-04T08:56:52;19.83;;;10.87;;
17052;SDS011;8643;48.824;11.422;2023-01-04T08:59:21;20.10;;;10.70;;
17052;SDS011;8643;48.824;11.422;2023-01-04T09:01:49;18.43;;;9.83;;
17052;SDS011;8643;48.824;11.422;2023-01-04T09:04:18;18.57;;;10.17;;
17052;SDS011;8643;48.824;11.422;2023-01-04T09:06:47;20.90;;;11.10;;
17052;SDS011;8643;48.824;11.422;2023-01-04T09:09:16;19.23;;;10.00;;
17052;SDS011;8643;48.824;11.422;2023-01-04T09:11:45;18.70;;;10.23;;
17052;SDS011;8643;48.824;11.422;2023-01-04T09:14:13;17.93;;;9.53;;
17052;SDS011;8643;48.824;11.422;2023-01-04T09:16:42;19.90;;;10.03;;
17052;SDS011;8643;48.824;11.422;2023-01-04T09:19:11;21.37;;;10.13;;
17052;SDS011;8643;48.824;11.422;2023-01-04T09:21:48;18.73;;;9.73;;
17052;SDS011;8643;48.824;11.422;2023-01-04T09:24:17;18.47;;;9.20;;
17052;SDS011;8643;48.824;11.422;2023-01-04T09:26:45;16.23;;;8.70;;
17052;SDS011;8643;48.824;11.422;2023-01-04T09:29:14;16.37;;;8.53;;
17052;SDS011;8643;48.824;11.422;2023-01-04T09:31:43;17.87;;;9.50;;
17052;SDS011;8643;48.824;11.422;2023-01-04T09:34:12;16.23;;;9.13;;
17052;SDS011;8643;48.824;11.422;2023-01-04T09:36:43;13.87;;;8.07;;
17052;SDS011;8643;48.824;11.422;2023-01-04T09:39:15;15.40;;;8.53;;
17052;SDS011;8643;48.824;11.422;2023-01-04T09:41:51;16.60;;;8.60;;
17052;SDS011;8643;48.824;11.422;2023-01-04T09:44:27;15.83;;;8.97;;
17052;SDS011;8643;48.824;11.422;2023-01-04T09:47:24;14.23;;;7.80;;
17052;SDS011;8643;48.824;11.422;2023-01-04T09:50:02;16.67;;;8.83;;
17052;SDS011;8643;48.824;11.422;2023-01-04T09:52:41;15.60;;;8.47;;
17052;SDS011;8643;48.824;11.422;2023-01-04T09:55:26;13.93;;;7.80;;
17052;SDS011;8643;48.824;11.422;2023-01-04T09:58:10;14.80;;;7.97;;
17052;SDS011;8643;48.824;11.422;2023-01-04T10:00:48;13.23;;;7.83;;
17052;SDS011;8643;48.824;11.422;2023-01-04T10:03:27;15.90;;;8.17;;
17052;SDS011;8643;48.824;11.422;2023-01-04T10:06:00;18.03;;;8.50;;
17052;SDS011;8643;48.824;11.422;2023-01-04T10:08:29;12.80;;;7.07;;
17052;SDS011;8643;48.824;11.422;2023-01-04T10:11:04;13.93;;;8.13;;
17052;SDS011;8643;48.824;11.422;2023-01-04T10:13:48;13.93;;;8.00;;
17052;SDS011;8643;48.824;11.422;2023-01-04T10:16:37;12.43;;;7.13;;
17052;SDS011;8643;48.824;11.422;2023-01-04T10:19:43;13.67;;;7.47;;
17052;SDS011;8643;48.824;11.422;2023-01-04T10:23:20;14.63;;;7.40;;
17052;SDS011;8643;48.824;11.422;2023-01-04T10:26:09;10.40;;;5.90;;
17052;SDS011;8643;48.824;11.422;2023-01-04T10:28:46;11.07;;;6.30;;
17052;SDS011;8643;48.824;11.422;2023-01-04T10:31:34;10.30;;;6.30;;
17052;SDS011;8643;48.824;11.422;2023-01-04T10:34:15;12.67;;;6.50;;
17052;SDS011;8643;48.824;11.422;2023-01-04T10:36:51;11.57;;;6.53;;
17052;SDS011;8643;48.824;11.422;2023-01-04T10:39:26;10.43;;;6.47;;
17052;SDS011;8643;48.824;11.422;2023-01-04T10:42:07;11.37;;;6.27;;
17052;SDS011;8643;48.824;11.422;2023-01-04T10:44:49;10.93;;;6.17;;
17052;SDS011;8643;48.824;11.422;2023-01-04T10:47:36;10.13;;;6.13;;
17052;SDS011;8643;48.824;11.422;2023-01-04T10:50:20;9.93;;;5.93;;
17052;SDS011;8643;48.824;11.422;2023-01-04T10:52:54;11.53;;;6.73;;
17052;SDS011;8643;48.824;11.422;2023-01-04T10:55:31;9.07;;;5.43;;
17052;SDS011;8643;48.824;11.422;2023-01-04T10:58:30;9.07;;;5.40;;
17052;SDS011;8643;48.824;11.422;2023-01-04T11:01:04;7.30;;;4.57;;
17052;SDS011;8643;48.824;11.422;2023-01-04T11:03:43;8.23;;;4.80;;
17052;SDS011;8643;48.824;11.422;2023-01-04T11:06:19;5.90;;;3.77;;
17052;SDS011;8643;48.824;11.422;2023-01-04T11:08:54;5.37;;;3.57;;
17052;SDS011;8643;48.824;11.422;2023-01-04T11:11:26;6.13;;;4.03;;
17052;SDS011;8643;48.824;11.422;2023-01-04T11:14:01;7.23;;;3.90;;
17052;SDS011;8643;48.824;11.422;2023-01-04T11:16:30;8.33;;;4.53;;
17052;SDS011;8643;48.824;11.422;2023-01-04T11:18:59;7.93;;;4.10;;
17052;SDS011;8643;48.824;11.422;2023-01-04T11:21:30;7.27;;;4.03;;
17052;SDS011;8643;48.824;11.422;2023-01-04T11:24:07;7.90;;;4.37;;
17052;SDS011;8643;48.824;11.422;2023-01-04T11:26:57;6.43;;;4.07;;
17052;SDS011;8643;48.824;11.422;2023-01-04T11:29:35;7.20;;;4.03;;
17052;SDS011;8643;48.824;11.422;2023-01-04T11:32:16;7.63;;;3.80;;
17052;SDS011;8643;48.824;11.422;2023-01-04T11:34:54;6.70;;;3.57;;
17052;SDS011;8643;48.824;11.422;2023-01-04T11:37:25;6.00;;;3.80;;
17052;SDS011;8643;48.824;11.422;2023-01-04T11:43:09;6.97;;;4.17;;
17052;SDS011;8643;48.824;11.422;2023-01-04T11:45:51;6.50;;;3.63;;
17052;SDS011;8643;48.824;11.422;2023-01-04T11:48:31;6.20;;;3.90;;
17052;SDS011;8643;48.824;11.422;2023-01-04T11:51:05;7.83;;;4.10;;
17052;SDS011;8643;48.824;11.422;2023-01-04T11:53:44;6.03;;;3.50;;
17052;SDS011;8643;48.824;11.422;2023-01-04T11:56:23;5.40;;;3.93;;
17052;SDS011;8643;48.824;11.422;2023-01-04T11:59:02;6.87;;;3.77;;
17052;SDS011;8643;48.824;11.422;2023-01-04T12:05:11;11.20;;;4.77;;
17052;SDS011;8643;48.824;11.422;2023-01-04T12:07:55;5.97;;;3.40;;
17052;SDS011;8643;48.824;11.422;2023-01-04T12:10:25;6.83;;;4.00;;
17052;SDS011;8643;48.824;11.422;2023-01-04T12:12:55;6.40;;;3.67;;
17052;SDS011;8643;48.824;11.422;2023-01-04T12:15:26;5.53;;;3.63;;
17052;SDS011;8643;48.824;11.422;2023-01-04T12:20:56;6.47;;;3.73;;
17052;SDS011;8643;48.824;11.422;2023-01-04T12:23:24;7.17;;;3.77;;
17052;SDS011;8643;48.824;11.422;2023-01-04T12:25:55;7.77;;;4.70;;
17052;SDS011;8643;48.824;11.422;2023-01-04T12:28:28;7.07;;;4.10;;
17052;SDS011;8643;48.824;11.422;2023-01-04T12:33:59;9.50;;;4.27;;
17052;SDS011;8643;48.824;11.422;2023-01-04T12:37:09;8.07;;;3.90;;
17052;SDS011;8643;48.824;11.422;2023-01-04T12:43:22;5.60;;;3.30;;
17052;SDS011;8643;48.824;11.422;2023-01-04T12:49:43;6.07;;;3.50;;
17052;SDS011;8643;48.824;11.422;2023-01-04T12:52:38;4.50;;;2.63;;
17052;SDS011;8643;48.824;11.422;2023-01-04T13:01:23;4.67;;;2.60;;
17052;SDS011;8643;48.824;11.422;2023-01-04T13:03:55;5.97;;;3.07;;
17052;SDS011;8643;48.824;11.422;2023-01-04T13:06:32;4.70;;;3.43;;
17052;SDS011;8643;48.824;11.422;2023-01-04T13:09:13;3.60;;;2.40;;
17052;SDS011;8643;48.824;11.422;2023-01-04T13:11:58;4.47;;;2.90;;
17052;SDS011;8643;48.824;11.422;2023-01-04T13:14:42;5.33;;;2.87;;
17052;SDS011;8643;48.824;11.422;2023-01-04T13:17:19;4.73;;;2.73;;
17052;SDS011;8643;48.824;11.422;2023-01-04T13:19:50;4.77;;;3.10;;
17052;SDS011;8643;48.824;11.422;2023-01-04T13:22:20;4.70;;;2.40;;
17052;SDS011;8643;48.824;11.422;2023-01-04T13:24:55;4.60;;;2.77;;
17052;SDS011;8643;48.824;11.422;2023-01-04T13:27:29;3.30;;;2.60;;
17052;SDS011;8643;48.824;11.422;2023-01-04T13:29:58;6.93;;;2.50;;
17052;SDS011;8643;48.824;11.422;2023-01-04T13:32:29;4.53;;;2.90;;
17052;SDS011;8643;48.824;11.422;2023-01-04T13:35:19;4.93;;;2.83;;
17052;SDS011;8643;48.824;11.422;2023-01-04T13:37:48;5.17;;;2.70;;
17052;SDS011;8643;48.824;11.422;2023-01-04T13:40:22;4.53;;;2.33;;
17052;SDS011;8643;48.824;11.422;2023-01-04T13:43:01;4.33;;;2.47;;
17052;SDS011;8643;48.824;11.422;2023-01-04T13:45:42;4.20;;;2.67;;
17052;SDS011;8643;48.824;11.422;2023-01-04T13:48:19;5.03;;;2.97;;
17052;SDS011;8643;48.824;11.422;2023-01-04T13:50:59;3.87;;;2.53;;
17052;SDS011;8643;48.824;11.422;2023-01-04T13:53:30;4.53;;;2.77;;
17052;SDS011;8643;48.824;11.422;2023-01-04T13:56:00;4.80;;;2.77;;
17052;SDS011;8643;48.824;11.422;2023-01-04T13:58:31;4.83;;;3.17;;
17052;SDS011;8643;48.824;11.422;2023-01-04T14:01:02;4.00;;;2.63;;
17052;SDS011;8643;48.824;11.422;2023-01-04T14:03:35;6.80;;;3.30;;
17052;SDS011;8643;48.824;11.422;2023-01-04T14:06:14;4.30;;;2.97;;
17052;SDS011;8643;48.824;11.422;2023-01-04T14:08:57;5.13;;;2.93;;
17052;SDS011;8643;48.824;11.422;2023-01-04T14:11:32;5.57;;;2.87;;
17052;SDS011;8643;48.824;11.422;2023-01-04T14:14:37;4.53;;;2.93;;
17052;SDS011;8643;48.824;11.422;2023-01-04T14:17:16;5.00;;;2.83;;
17052;SDS011;8643;48.824;11.422;2023-01-04T14:20:02;5.40;;;2.60;;
17052;SDS011;8643;48.824;11.422;2023-01-04T14:22:34;4.13;;;2.70;;
17052;SDS011;8643;48.824;11.422;2023-01-04T14:28:19;4.73;;;2.97;;
17052;SDS011;8643;48.824;11.422;2023-01-04T14:34:11;4.60;;;2.57;;
17052;SDS011;8643;48.824;11.422;2023-01-04T14:36:41;4.57;;;2.60;;
17052;SDS011;8643;48.824;11.422;2023-01-04T14:39:13;5.43;;;3.07;;
17052;SDS011;8643;48.824;11.422;2023-01-04T14:42:01;5.17;;;2.97;;
17052;SDS011;8643;48.824;11.422;2023-01-04T14:44:31;3.70;;;2.60;;
17052;SDS011;8643;48.824;11.422;2023-01-04T14:47:03;4.93;;;2.63;;
17052;SDS011;8643;48.824;11.422;2023-01-04T14:49:32;4.53;;;2.67;;
17052;SDS011;8643;48.824;11.422;2023-01-04T14:52:01;6.00;;;3.13;;
17052;SDS011;8643;48.824;11.422;2023-01-04T14:54:37;6.40;;;2.50;;
17052;SDS011;8643;48.824;11.422;2023-01-04T14:57:05;4.10;;;2.53;;
17052;SDS011;8643;48.824;11.422;2023-01-04T14:59:35;4.10;;;2.60;;
17052;SDS011;8643;48.824;11.422;2023-01-04T15:02:05;3.57;;;2.70;;
17052;SDS011;8643;48.824;11.422;2023-01-04T15:04:36;3.20;;;2.30;;
17052;SDS011;8643;48.824;11.422;2023-01-04T15:07:05;5.47;;;2.83;;
17052;SDS011;8643;48.824;11.422;2023-01-04T15:09:54;4.80;;;2.67;;
17052;SDS011;8643;48.824;11.422;2023-01-04T15:12:22;8.70;;;2.67;;
17052;SDS011;8643;48.824;11.422;2023-01-04T15:14:51;4.43;;;2.67;;
17052;SDS011;8643;48.824;11.422;2023-01-04T15:17:21;4.80;;;2.80;;
17052;SDS011;8643;48.824;11.422;2023-01-04T15:19:49;5.07;;;2.73;;
17052;SDS011;8643;48.824;11.422;2023-01-04T15:22:18;4.13;;;2.60;;
17052;SDS011;8643;48.824;11.422;2023-01-04T15:24:46;5.67;;;3.10;;
17052;SDS011;8643;48.824;11.422;2023-01-04T15:27:15;5.10;;;2.83;;
17052;SDS011;8643;48.824;11.422;2023-01-04T15:29:43;5.97;;;2.80;;
17052;SDS011;8643;48.824;11.422;2023-01-04T15:32:12;4.73;;;2.90;;
17052;SDS011;8643;48.824;11.422;2023-01-04T15:34:42;6.00;;;2.87;;
17052;SDS011;8643;48.824;11.422;2023-01-04T15:37:12;4.00;;;2.53;;
17052;SDS011;8643;48.824;11.422;2023-01-04T15:39:48;5.50;;;3.10;;
17052;SDS011;8643;48.824;11.422;2023-01-04T15:42:25;9.87;;;3.27;;
17052;SDS011;8643;48.824;11.422;2023-01-04T15:45:11;6.80;;;2.90;;
17052;SDS011;8643;48.824;11.422;2023-01-04T15:47:39;4.20;;;2.87;;
17052;SDS011;8643;48.824;11.422;2023-01-04T15:50:09;4.17;;;3.07;;
17052;SDS011;8643;48.824;11.422;2023-01-04T15:52:38;5.40;;;2.90;;
17052;SDS011;8643;48.824;11.422;2023-01-04T15:55:07;4.77;;;2.90;;